createdAt,value
2022-12-20T00:01:27.776Z,19.35
2022-12-20T00:03:56.877Z,18.65
2022-12-20T00:06:24.543Z,18.60
2022-12-20T00:08:56.627Z,18.63
2022-12-20T00:11:24.618Z,17.63
2022-12-20T00:13:51.897Z,17.15
2022-12-20T00:16:24.860Z,17.58
2022-12-20T00:18:53.904Z,17.10
2022-12-20T00:21:21.165Z,17.30
2022-12-20T00:23:48.605Z,17.42
2022-12-20T00:26:20.703Z,17.42
2022-12-20T00:28:47.962Z,17.30
2022-12-20T00:31:16.637Z,16.95
2022-12-20T00:33:46.829Z,17.98
2022-12-20T00:36:14.057Z,17.45
2022-12-20T00:38:41.485Z,16.77
2022-12-20T00:41:10.669Z,17.45
2022-12-20T00:43:39.207Z,18.50
2022-12-20T00:46:07.352Z,17.07
2022-12-20T00:48:35.108Z,17.17
2022-12-20T00:51:04.484Z,17.42
2022-12-20T00:55:58.928Z,16.23
2022-12-20T00:58:26.723Z,17.92
2022-12-20T01:00:56.506Z,17.80
2022-12-20T01:03:24.946Z,18.08
2022-12-20T01:05:54.132Z,18.88
2022-12-20T01:08:22.318Z,19.05
2022-12-20T01:11:00.081Z,18.45
2022-12-20T01:13:27.482Z,18.77
2022-12-20T01:15:54.693Z,19.75
2022-12-20T01:18:21.942Z,19.90
2022-12-20T01:20:49.149Z,18.70
2022-12-20T01:23:16.320Z,18.52
2022-12-20T01:25:43.487Z,18.15
2022-12-20T01:28:10.659Z,18.98
2022-12-20T01:30:41.341Z,18.55
2022-12-20T01:33:08.506Z,17.02
2022-12-20T01:35:35.755Z,18.40
2022-12-20T01:38:02.963Z,17.38
2022-12-20T01:40:30.184Z,18.70
2022-12-20T01:42:57.358Z,18.92
2022-12-20T01:45:31.543Z,18.58
2022-12-20T01:48:00.473Z,18.48
2022-12-20T01:50:27.693Z,19.73
2022-12-20T01:52:55.184Z,17.45
2022-12-20T01:55:27.107Z,18.27
2022-12-20T01:58:06.249Z,18.45
2022-12-20T02:00:33.621Z,16.60
2022-12-20T02:03:04.216Z,17.38
2022-12-20T02:05:36.813Z,18.35
2022-12-20T02:08:04.409Z,17.73
2022-12-20T02:11:04.090Z,17.33
2022-12-20T02:14:04.080Z,17.20
2022-12-20T02:16:39.376Z,18.02
2022-12-20T02:19:31.462Z,18.20
2022-12-20T02:22:16.631Z,17.23
2022-12-20T02:24:58.476Z,18.38
2022-12-20T02:27:37.098Z,17.75
2022-12-20T02:30:34.030Z,16.48
2022-12-20T02:33:07.544Z,16.90
2022-12-20T02:35:37.093Z,17.85
2022-12-20T02:38:29.187Z,17.70
2022-12-20T02:41:07.187Z,18.75
2022-12-20T02:44:13.394Z,17.33
2022-12-20T02:46:40.660Z,17.98
2022-12-20T02:49:12.464Z,17.20
2022-12-20T02:51:41.465Z,17.05
2022-12-20T02:54:08.638Z,17.55
2022-12-20T02:56:50.623Z,17.05
2022-12-20T02:59:36.648Z,16.83
2022-12-20T03:02:04.233Z,16.52
2022-12-20T03:04:34.094Z,16.23
2022-12-20T03:07:04.004Z,16.42
2022-12-20T03:09:32.338Z,15.02
2022-12-20T03:11:59.592Z,16.23
2022-12-20T03:14:27.953Z,16.85
2022-12-20T03:16:55.243Z,15.85
2022-12-20T03:19:22.693Z,16.88
2022-12-20T03:21:49.844Z,17.55
2022-12-20T03:24:17.162Z,15.85
2022-12-20T03:26:44.419Z,15.80
2022-12-20T03:29:11.712Z,15.77
2022-12-20T03:31:38.916Z,15.93
2022-12-20T03:34:06.352Z,16.58
2022-12-20T03:36:33.537Z,15.82
2022-12-20T03:39:01.038Z,15.13
2022-12-20T03:41:28.328Z,15.93
2022-12-20T03:43:55.519Z,15.38
2022-12-20T03:46:22.941Z,16.35
2022-12-20T03:48:50.202Z,15.75
2022-12-20T03:51:17.395Z,15.98
2022-12-20T03:53:44.572Z,15.27
2022-12-20T03:56:11.773Z,15.88
2022-12-20T03:58:39.296Z,16.27
2022-12-20T04:01:24.512Z,16.25
2022-12-20T04:03:52.389Z,15.68
2022-12-20T04:06:20.643Z,16.45
2022-12-20T04:08:47.939Z,15.60
2022-12-20T04:11:18.602Z,14.80
2022-12-20T04:13:53.688Z,16.83
2022-12-20T04:16:23.249Z,16.55
2022-12-20T04:18:50.544Z,16.90
2022-12-20T04:21:23.144Z,16.27
2022-12-20T04:23:50.779Z,15.98
2022-12-20T04:26:18.781Z,15.57
2022-12-20T04:28:45.962Z,15.68
2022-12-20T04:31:16.161Z,16.00
2022-12-20T04:33:48.670Z,15.10
2022-12-20T04:36:16.329Z,15.57
2022-12-20T04:38:43.601Z,15.75
2022-12-20T04:41:22.102Z,16.25
2022-12-20T04:43:55.423Z,17.35
2022-12-20T04:46:24.136Z,15.60
2022-12-20T04:49:00.005Z,15.32
2022-12-20T04:51:27.811Z,15.57
2022-12-20T04:53:55.341Z,16.23
2022-12-20T04:56:28.534Z,16.77
2022-12-20T04:58:57.455Z,15.75
2022-12-20T05:01:24.997Z,15.70
2022-12-20T05:03:52.633Z,17.17
2022-12-20T05:06:19.960Z,16.60
2022-12-20T05:08:47.498Z,15.25
2022-12-20T05:11:14.734Z,15.00
2022-12-20T05:13:42.279Z,15.65
2022-12-20T05:16:09.558Z,15.63
2022-12-20T05:18:36.819Z,16.67
2022-12-20T05:21:23.503Z,16.58
2022-12-20T05:24:09.334Z,16.40
2022-12-20T05:26:37.720Z,14.95
2022-12-20T05:29:05.723Z,15.95
2022-12-20T05:31:33.074Z,17.13
2022-12-20T05:34:07.894Z,15.88
2022-12-20T05:36:35.061Z,15.95
2022-12-20T05:39:04.510Z,17.08
2022-12-20T05:41:32.110Z,17.38
2022-12-20T05:43:59.388Z,15.05
2022-12-20T05:46:26.878Z,14.57
2022-12-20T05:48:54.175Z,16.33
2022-12-20T05:51:21.627Z,16.38
2022-12-20T05:53:48.816Z,16.45
2022-12-20T05:56:16.049Z,15.95
2022-12-20T05:58:43.353Z,16.65
2022-12-20T06:01:10.697Z,16.85
2022-12-20T06:03:39.312Z,17.17
2022-12-20T06:06:13.560Z,16.15
2022-12-20T06:08:42.308Z,16.77
2022-12-20T06:11:40.126Z,15.70
2022-12-20T06:14:07.296Z,16.25
2022-12-20T06:16:34.621Z,16.80
2022-12-20T06:19:02.663Z,17.23
2022-12-20T06:21:30.068Z,17.48
2022-12-20T06:23:57.282Z,18.00
2022-12-20T06:26:24.458Z,19.33
2022-12-20T06:28:54.611Z,18.02
2022-12-20T06:31:21.932Z,17.02
2022-12-20T06:33:49.182Z,18.90
2022-12-20T06:36:16.411Z,17.95
2022-12-20T06:38:43.693Z,18.08
2022-12-20T06:41:11.274Z,17.70
2022-12-20T06:43:38.499Z,18.08
2022-12-20T06:46:06.349Z,17.77
2022-12-20T06:48:33.610Z,18.15
2022-12-20T06:51:00.882Z,18.27
2022-12-20T06:53:28.139Z,16.65
2022-12-20T06:55:55.523Z,17.10
2022-12-20T06:58:22.796Z,18.13
2022-12-20T07:00:50.154Z,17.83
2022-12-20T07:03:17.467Z,18.08
2022-12-20T07:05:44.750Z,16.48
2022-12-20T07:08:11.941Z,17.50
2022-12-20T07:10:39.167Z,17.35
2022-12-20T07:13:06.477Z,18.13
2022-12-20T07:15:33.660Z,16.85
2022-12-20T07:18:01.342Z,17.17
2022-12-20T07:20:28.711Z,18.70
2022-12-20T07:22:55.917Z,18.33
2022-12-20T07:25:23.340Z,19.00
2022-12-20T07:27:50.744Z,18.05
2022-12-20T07:30:19.032Z,18.05
2022-12-20T07:32:46.839Z,18.20
2022-12-20T07:35:14.910Z,18.63
2022-12-20T07:37:42.701Z,19.90
2022-12-20T07:40:11.025Z,23.08
2022-12-20T07:42:42.897Z,21.88
2022-12-20T07:45:15.628Z,20.17
2022-12-20T07:47:44.029Z,19.77
2022-12-20T07:50:11.842Z,19.83
2022-12-20T07:52:40.887Z,19.40
2022-12-20T07:55:09.052Z,20.80
2022-12-20T07:57:50.043Z,20.05
2022-12-20T08:00:18.771Z,20.90
2022-12-20T08:03:09.305Z,22.33
2022-12-20T08:05:39.198Z,22.75
2022-12-20T08:08:06.992Z,22.27
2022-12-20T08:10:34.344Z,23.20
2022-12-20T08:13:01.703Z,22.45
2022-12-20T08:15:29.529Z,21.88
2022-12-20T08:17:56.753Z,22.88
2022-12-20T08:20:23.975Z,23.10
2022-12-20T08:22:51.163Z,22.95
2022-12-20T08:25:18.706Z,23.83
2022-12-20T08:27:46.273Z,24.73
2022-12-20T08:30:13.802Z,27.02
2022-12-20T08:32:41.160Z,26.67
2022-12-20T08:35:08.669Z,24.70
2022-12-20T08:37:36.267Z,24.80
2022-12-20T08:40:03.532Z,27.55
2022-12-20T08:42:30.815Z,27.48
2022-12-20T08:44:57.993Z,26.60
2022-12-20T08:47:25.208Z,27.08
2022-12-20T08:49:52.731Z,26.90
2022-12-20T08:52:19.935Z,24.98
2022-12-20T08:54:47.133Z,25.83
2022-12-20T08:57:14.410Z,25.85
2022-12-20T08:59:41.609Z,23.55
2022-12-20T09:02:09.030Z,25.48
2022-12-20T09:04:36.685Z,24.20
2022-12-20T09:07:03.885Z,25.45
2022-12-20T09:09:31.580Z,29.15
2022-12-20T09:11:58.977Z,25.70
2022-12-20T09:14:26.177Z,26.33
2022-12-20T09:16:53.358Z,25.65
2022-12-20T09:19:20.578Z,25.77
2022-12-20T09:21:47.971Z,25.20
2022-12-20T09:24:15.391Z,24.88
2022-12-20T09:26:42.619Z,22.80
2022-12-20T09:29:21.045Z,23.10
2022-12-20T09:34:20.833Z,23.63
2022-12-20T09:36:48.156Z,23.65
2022-12-20T09:39:15.370Z,23.73
2022-12-20T09:41:44.354Z,24.40
2022-12-20T09:44:29.584Z,20.85
2022-12-20T09:47:25.856Z,21.42
2022-12-20T09:49:56.058Z,19.42
2022-12-20T09:53:18.511Z,20.27
2022-12-20T09:55:54.720Z,18.80
2022-12-20T09:58:31.589Z,18.48
2022-12-20T10:00:59.418Z,18.50
2022-12-20T10:03:31.868Z,18.45
2022-12-20T10:06:29.123Z,17.92
2022-12-20T10:09:37.120Z,17.10
2022-12-20T10:12:40.637Z,17.27
2022-12-20T10:15:23.310Z,17.88
2022-12-20T10:17:56.670Z,18.65
2022-12-20T10:20:29.765Z,17.98
2022-12-20T10:23:13.590Z,18.98
2022-12-20T10:25:43.083Z,19.45
2022-12-20T10:28:16.398Z,19.27
2022-12-20T10:30:43.885Z,18.85
2022-12-20T10:33:22.024Z,18.60
2022-12-20T10:35:50.699Z,18.45
2022-12-20T10:38:18.442Z,16.67
2022-12-20T10:41:20.613Z,17.17
2022-12-20T10:43:58.007Z,16.40
2022-12-20T10:46:36.600Z,16.77
2022-12-20T10:49:23.672Z,16.63
2022-12-20T10:51:57.031Z,15.18
2022-12-20T10:54:34.532Z,14.48
2022-12-20T10:57:24.479Z,15.13
2022-12-20T10:59:54.929Z,15.68
2022-12-20T11:02:41.264Z,15.32
2022-12-20T11:05:24.309Z,16.08
2022-12-20T11:08:24.283Z,16.08
2022-12-20T11:10:39.932Z,15.50
2022-12-20T11:13:29.594Z,15.55
2022-12-20T11:16:01.360Z,15.27
2022-12-20T11:18:55.370Z,15.05
2022-12-20T11:22:12.814Z,14.90
2022-12-20T11:24:45.188Z,14.60
2022-12-20T11:27:31.209Z,15.25
2022-12-20T11:30:42.185Z,15.13
2022-12-20T11:33:37.505Z,14.93
2022-12-20T11:36:14.345Z,13.40
2022-12-20T11:39:11.124Z,13.88
2022-12-20T11:42:21.085Z,13.65
2022-12-20T11:45:10.117Z,13.20
2022-12-20T11:50:45.974Z,12.55
2022-12-20T11:53:43.907Z,12.15
2022-12-20T11:56:20.600Z,12.25
2022-12-20T11:58:54.443Z,10.93
2022-12-20T12:01:27.389Z,11.75
2022-12-20T12:04:18.360Z,11.68
2022-12-20T12:06:58.545Z,11.48
2022-12-20T12:09:33.380Z,11.30
2022-12-20T12:12:18.836Z,11.95
2022-12-20T12:15:04.676Z,11.55
2022-12-20T12:18:02.419Z,11.23
2022-12-20T12:20:48.380Z,12.48
2022-12-20T12:23:52.523Z,12.30
2022-12-20T12:26:25.620Z,11.88
2022-12-20T12:29:01.647Z,11.52
2022-12-20T12:31:43.271Z,11.05
2022-12-20T12:34:32.366Z,11.25
2022-12-20T12:37:32.710Z,11.63
2022-12-20T12:40:26.309Z,13.18
2022-12-20T12:42:53.603Z,11.85
2022-12-20T12:45:26.711Z,13.52
2022-12-20T12:48:13.517Z,13.45
2022-12-20T12:50:45.319Z,13.88
2022-12-20T12:53:30.996Z,13.77
2022-12-20T12:56:19.382Z,14.63
2022-12-20T12:58:49.067Z,13.52
2022-12-20T13:01:49.008Z,14.65
2022-12-20T13:04:21.819Z,14.15
2022-12-20T13:06:48.909Z,14.45
2022-12-20T13:09:44.411Z,13.60
2022-12-20T13:12:39.489Z,14.10
2022-12-20T13:15:23.983Z,13.25
2022-12-20T13:17:52.205Z,13.80
2022-12-20T13:20:22.777Z,13.63
2022-12-20T13:23:08.960Z,14.57
2022-12-20T13:25:40.121Z,13.32
2022-12-20T13:28:17.076Z,13.65
2022-12-20T13:30:46.670Z,13.70
2022-12-20T13:33:32.447Z,13.65
2022-12-20T13:36:25.468Z,13.88
2022-12-20T13:38:55.406Z,14.32
2022-12-20T13:41:48.556Z,14.40
2022-12-20T13:44:59.623Z,14.95
2022-12-20T13:50:39.928Z,14.48
2022-12-20T13:53:36.650Z,13.40
2022-12-20T13:56:36.120Z,14.38
2022-12-20T13:59:31.580Z,14.30
2022-12-20T14:02:07.586Z,13.85
2022-12-20T14:04:56.224Z,13.90
2022-12-20T14:07:23.732Z,13.32
2022-12-20T14:09:58.059Z,12.07
2022-12-20T14:15:32.901Z,13.00
2022-12-20T14:18:20.617Z,12.13
2022-12-20T14:21:00.100Z,12.85
2022-12-20T14:23:34.350Z,13.02
2022-12-20T14:26:02.654Z,12.93
2022-12-20T14:28:35.868Z,12.68
2022-12-20T14:31:04.588Z,13.50
2022-12-20T14:33:37.479Z,12.45
2022-12-20T14:36:19.158Z,13.68
2022-12-20T14:38:50.787Z,14.07
2022-12-20T14:41:56.319Z,12.88
2022-12-20T14:44:25.195Z,13.18
2022-12-20T14:46:58.452Z,13.82
2022-12-20T14:49:32.288Z,12.65
2022-12-20T14:52:14.754Z,13.43
2022-12-20T14:55:09.341Z,14.02
2022-12-20T14:57:45.238Z,14.20
2022-12-20T15:00:21.834Z,14.50
2022-12-20T15:03:01.706Z,14.75
2022-12-20T15:05:38.835Z,14.70
2022-12-20T15:08:27.380Z,13.82
2022-12-20T15:11:03.984Z,14.95
2022-12-20T15:13:44.511Z,15.30
2022-12-20T15:16:20.938Z,15.13
2022-12-20T15:18:49.638Z,15.45
2022-12-20T15:21:37.382Z,16.05
2022-12-20T15:24:12.828Z,16.33
2022-12-20T15:26:40.143Z,16.48
2022-12-20T15:29:10.473Z,16.67
2022-12-20T15:31:38.002Z,15.15
2022-12-20T15:34:20.255Z,17.00
2022-12-20T15:36:47.774Z,16.65
2022-12-20T15:39:15.651Z,18.60
2022-12-20T15:41:48.737Z,18.00
2022-12-20T15:44:24.618Z,18.30
2022-12-20T15:46:52.855Z,18.42
2022-12-20T15:49:23.444Z,19.85
2022-12-20T15:51:52.273Z,18.63
2022-12-20T15:54:27.799Z,18.10
2022-12-20T15:57:00.129Z,19.52
2022-12-20T16:02:21.684Z,19.20
2022-12-20T16:04:49.093Z,20.83
2022-12-20T16:07:16.838Z,18.95
2022-12-20T16:09:44.386Z,19.70
2022-12-20T16:12:38.526Z,20.17
2022-12-20T16:15:08.164Z,20.33
2022-12-20T16:17:35.367Z,20.42
2022-12-20T16:20:02.593Z,21.30
2022-12-20T16:22:32.053Z,20.70
2022-12-20T16:24:59.379Z,22.20
2022-12-20T16:27:26.649Z,21.73
2022-12-20T16:29:53.867Z,20.25
2022-12-20T16:32:22.059Z,21.45
2022-12-20T16:34:52.884Z,21.25
2022-12-20T16:37:21.615Z,20.63
2022-12-20T16:39:49.052Z,21.27
2022-12-20T16:42:23.286Z,21.85
2022-12-20T16:44:54.407Z,22.63
2022-12-20T16:47:22.554Z,21.35
2022-12-20T16:49:53.444Z,20.83
2022-12-20T16:52:22.555Z,22.13
2022-12-20T16:54:50.029Z,21.02
2022-12-20T16:57:17.369Z,21.17
2022-12-20T16:59:44.647Z,22.10
2022-12-20T17:02:33.023Z,21.38
2022-12-20T17:05:00.763Z,20.55
2022-12-20T17:07:28.004Z,21.30
2022-12-20T17:09:55.200Z,21.55
2022-12-20T17:12:23.381Z,20.35
2022-12-20T17:14:50.739Z,21.13
2022-12-20T17:17:17.960Z,22.00
2022-12-20T17:19:45.398Z,20.58
2022-12-20T17:24:58.114Z,20.40
2022-12-20T17:27:25.602Z,20.60
2022-12-20T17:29:52.830Z,20.35
2022-12-20T17:32:22.874Z,21.92
2022-12-20T17:34:50.471Z,20.67
2022-12-20T17:37:18.137Z,20.67
2022-12-20T17:39:47.477Z,21.45
2022-12-20T17:42:15.305Z,20.15
2022-12-20T17:44:42.578Z,20.83
2022-12-20T17:47:09.805Z,19.80
2022-12-20T17:49:37.105Z,19.15
2022-12-20T17:52:04.765Z,19.65
2022-12-20T17:54:38.927Z,19.45
2022-12-20T17:57:14.339Z,20.02
2022-12-20T17:59:42.341Z,18.63
2022-12-20T18:02:28.180Z,19.40
2022-12-20T18:04:55.900Z,18.92
2022-12-20T18:07:23.081Z,18.77
2022-12-20T18:09:50.919Z,18.30
2022-12-20T18:12:18.466Z,19.90
2022-12-20T18:14:47.479Z,18.95
2022-12-20T18:17:14.731Z,20.08
2022-12-20T18:19:43.766Z,19.25
2022-12-20T18:22:11.085Z,19.30
2022-12-20T18:24:38.278Z,18.98
2022-12-20T18:27:05.614Z,21.52
2022-12-20T18:29:33.002Z,21.40
2022-12-20T18:32:00.503Z,19.02
2022-12-20T18:34:27.824Z,19.48
2022-12-20T18:36:55.326Z,19.13
2022-12-20T18:39:25.365Z,19.48
2022-12-20T18:41:52.684Z,20.58
2022-12-20T18:44:20.126Z,20.65
2022-12-20T18:46:47.327Z,20.35
2022-12-20T18:49:14.705Z,19.70
2022-12-20T18:51:42.054Z,19.95
2022-12-20T18:54:10.312Z,19.15
2022-12-20T18:56:38.648Z,20.33
2022-12-20T18:59:13.463Z,19.77
2022-12-20T19:01:41.613Z,19.67
2022-12-20T19:04:09.497Z,20.17
2022-12-20T19:06:37.970Z,19.55
2022-12-20T19:09:08.933Z,19.50
2022-12-20T19:11:36.831Z,18.83
2022-12-20T19:14:04.092Z,19.50
2022-12-20T19:16:32.841Z,19.02
2022-12-20T19:19:01.880Z,19.98
2022-12-20T19:21:31.495Z,18.58
2022-12-20T19:24:00.765Z,20.70
2022-12-20T19:28:55.948Z,21.10
2022-12-20T19:31:26.055Z,20.85
2022-12-20T19:33:56.312Z,20.40
2022-12-20T19:36:29.392Z,21.27
2022-12-20T19:39:02.040Z,21.20
2022-12-20T19:41:31.202Z,21.35
2022-12-20T19:43:59.282Z,21.88
2022-12-20T19:46:29.104Z,21.27
2022-12-20T19:48:57.689Z,20.38
2022-12-20T19:51:25.895Z,21.30
2022-12-20T19:53:54.029Z,21.00
2022-12-20T19:56:25.100Z,22.50
2022-12-20T19:58:53.550Z,21.83
2022-12-20T20:01:22.936Z,21.83
2022-12-20T20:03:50.339Z,22.10
2022-12-20T20:06:18.400Z,21.55
2022-12-20T20:08:45.753Z,21.50
2022-12-20T20:11:13.146Z,22.20
2022-12-20T20:13:41.121Z,22.27
2022-12-20T20:16:09.773Z,22.75
2022-12-20T20:18:38.225Z,23.80
2022-12-20T20:21:07.612Z,23.57
2022-12-20T20:26:02.475Z,23.83
2022-12-20T20:28:33.257Z,23.85
2022-12-20T20:31:04.408Z,24.95
2022-12-20T20:33:32.293Z,25.37
2022-12-20T20:36:01.237Z,24.17
2022-12-20T20:38:30.450Z,23.92
2022-12-20T20:40:57.767Z,24.02
2022-12-20T20:43:25.358Z,23.38
2022-12-20T20:45:53.036Z,23.92
2022-12-20T20:48:20.477Z,24.38
2022-12-20T20:50:47.894Z,24.95
2022-12-20T20:53:15.315Z,24.98
2022-12-20T20:55:42.799Z,23.77
2022-12-20T20:58:10.385Z,24.35
2022-12-20T21:00:37.774Z,24.90
2022-12-20T21:03:06.607Z,25.40
2022-12-20T21:08:21.801Z,25.05
2022-12-20T21:10:50.286Z,24.23
2022-12-20T21:13:18.454Z,24.70
2022-12-20T21:15:46.580Z,23.55
2022-12-20T21:18:14.334Z,23.58
2022-12-20T21:20:42.875Z,23.65
2022-12-20T21:23:12.096Z,23.83
2022-12-20T21:25:39.325Z,24.50
2022-12-20T21:28:06.830Z,22.83
2022-12-20T21:30:34.774Z,22.50
2022-12-20T21:33:02.384Z,22.95
2022-12-20T21:35:29.827Z,24.10
2022-12-20T21:37:57.246Z,25.65
2022-12-20T21:40:24.723Z,26.30
2022-12-20T21:42:52.155Z,25.73
2022-12-20T21:45:19.357Z,25.15
2022-12-20T21:47:47.187Z,24.85
2022-12-20T21:50:14.546Z,25.55
2022-12-20T21:52:42.027Z,23.90
2022-12-20T21:55:10.543Z,24.52
2022-12-20T21:57:38.138Z,23.93
2022-12-20T22:00:05.991Z,24.00
2022-12-20T22:02:46.586Z,26.35
2022-12-20T22:05:15.443Z,25.10
2022-12-20T22:07:42.678Z,25.60
2022-12-20T22:10:10.321Z,24.52
2022-12-20T22:12:37.997Z,25.38
2022-12-20T22:15:05.646Z,25.58
2022-12-20T22:17:33.464Z,25.77
2022-12-20T22:20:00.964Z,25.08
2022-12-20T22:22:28.372Z,24.42
2022-12-20T22:24:55.567Z,24.52
2022-12-20T22:27:23.968Z,22.63
2022-12-20T22:29:51.138Z,24.07
2022-12-20T22:32:18.342Z,22.55
2022-12-20T22:34:45.576Z,24.23
2022-12-20T22:37:12.809Z,25.90
2022-12-20T22:39:40.337Z,25.17
2022-12-20T22:42:07.517Z,25.27
2022-12-20T22:44:34.738Z,25.48
2022-12-20T22:47:01.944Z,26.27
2022-12-20T22:49:29.141Z,24.38
2022-12-20T22:52:06.940Z,24.77
2022-12-20T22:54:34.930Z,23.85
2022-12-20T22:57:02.124Z,23.98
2022-12-20T22:59:29.346Z,24.52
2022-12-20T23:01:56.756Z,25.67
2022-12-20T23:04:24.118Z,25.80
2022-12-20T23:06:51.299Z,25.17
2022-12-20T23:09:18.481Z,25.30
2022-12-20T23:12:04.312Z,25.50
2022-12-20T23:14:50.254Z,25.38
2022-12-20T23:17:17.445Z,25.55
2022-12-20T23:20:03.425Z,27.15
2022-12-20T23:22:40.441Z,25.60
2022-12-20T23:25:15.383Z,25.33
2022-12-20T23:27:43.760Z,27.58
2022-12-20T23:30:14.442Z,26.70
2022-12-20T23:32:44.557Z,29.55
2022-12-20T23:35:14.238Z,32.20
2022-12-20T23:40:10.662Z,32.65
2022-12-20T23:42:38.603Z,32.38
2022-12-20T23:45:06.371Z,34.30
2022-12-20T23:47:33.849Z,35.00
2022-12-20T23:50:01.489Z,36.72
2022-12-20T23:52:28.960Z,37.05
2022-12-20T23:54:57.250Z,37.17
2022-12-20T23:57:24.468Z,35.83
2022-12-20T23:59:51.957Z,36.13
